createdAt,value
2023-03-13T00:01:27.874Z,98935.31
2023-03-13T00:03:55.549Z,98927.16
2023-03-13T00:06:26.256Z,98926.78
2023-03-13T00:08:54.577Z,98934.72
2023-03-13T00:11:21.755Z,98932.06
2023-03-13T00:13:48.718Z,98944.50
2023-03-13T00:16:17.202Z,98942.88
2023-03-13T00:18:50.620Z,98940.63
2023-03-13T00:21:21.300Z,98940.25
2023-03-13T00:23:49.176Z,98937.59
2023-03-13T00:26:20.905Z,98930.88
2023-03-13T00:28:48.805Z,98921.09
2023-03-13T00:31:31.632Z,98924.38
2023-03-13T00:34:02.338Z,98922.94
2023-03-13T00:36:33.500Z,98921.94
2023-03-13T00:39:05.529Z,98900.31
2023-03-13T00:41:37.127Z,98901.13
2023-03-13T00:44:05.355Z,98901.56
2023-03-13T00:46:32.827Z,98903.78
2023-03-13T00:48:59.784Z,98898.72
2023-03-13T00:51:28.721Z,98891.41
2023-03-13T00:54:00.256Z,98883.25
2023-03-13T00:56:28.679Z,98881.22
2023-03-13T00:58:55.648Z,98878.38
2023-03-13T01:01:27.127Z,98872.28
2023-03-13T01:04:08.320Z,98875.53
2023-03-13T01:06:40.691Z,98876.53
2023-03-13T01:09:10.323Z,98874.72
2023-03-13T01:11:41.817Z,98873.09
2023-03-13T01:14:18.981Z,98871.06
2023-03-13T01:16:47.289Z,98873.69
2023-03-13T01:19:16.660Z,98868.00
2023-03-13T01:21:46.843Z,98864.13
2023-03-13T01:24:14.133Z,98870.25
2023-03-13T01:26:41.374Z,98868.63
2023-03-13T01:29:08.679Z,98868.63
2023-03-13T01:31:37.150Z,98866.56
2023-03-13T01:34:08.196Z,98871.88
2023-03-13T01:36:37.755Z,98867.41
2023-03-13T01:39:06.378Z,98871.47
2023-03-13T01:41:33.810Z,98865.34
2023-03-13T01:44:00.978Z,98869.84
2023-03-13T01:46:36.682Z,98864.53
2023-03-13T01:49:34.924Z,98870.47
2023-03-13T01:52:28.695Z,98880.03
2023-03-13T01:55:17.624Z,98867.63
2023-03-13T01:57:54.845Z,98881.69
2023-03-13T02:00:29.596Z,98880.84
2023-03-13T02:03:04.144Z,98885.34
2023-03-13T02:05:35.943Z,98887.78
2023-03-13T02:08:14.653Z,98889.41
2023-03-13T02:11:03.724Z,98885.94
2023-03-13T02:13:31.100Z,98885.75
2023-03-13T02:15:59.029Z,98888.19
2023-03-13T02:18:26.858Z,98882.91
2023-03-13T02:21:08.205Z,98884.53
2023-03-13T02:23:50.835Z,98890.63
2023-03-13T02:26:18.250Z,98895.16
2023-03-13T02:28:45.656Z,98900.44
2023-03-13T02:31:14.814Z,98906.13
2023-03-13T02:33:44.710Z,98902.66
2023-03-13T02:36:17.132Z,98899.22
2023-03-13T02:38:56.291Z,98907.78
2023-03-13T02:41:26.363Z,98917.34
2023-03-13T02:43:55.580Z,98924.50
2023-03-13T02:46:22.774Z,98923.47
2023-03-13T02:48:56.877Z,98922.47
2023-03-13T02:51:36.915Z,98924.06
2023-03-13T02:54:11.936Z,98931.84
2023-03-13T02:56:43.006Z,98930.03
2023-03-13T02:59:11.529Z,98937.16
2023-03-13T03:01:42.332Z,98936.94
2023-03-13T03:04:09.687Z,98941.22
2023-03-13T03:06:37.134Z,98932.25
2023-03-13T03:09:05.509Z,98940.19
2023-03-13T03:11:35.615Z,98934.72
2023-03-13T03:14:09.140Z,98934.72
2023-03-13T03:16:41.124Z,98937.38
2023-03-13T03:19:10.908Z,98938.16
2023-03-13T03:21:38.246Z,98940.81
2023-03-13T03:24:06.144Z,98932.06
2023-03-13T03:26:33.655Z,98935.31
2023-03-13T03:29:01.271Z,98935.09
2023-03-13T03:31:28.368Z,98935.09
2023-03-13T03:33:57.777Z,98936.75
2023-03-13T03:36:25.166Z,98935.53
2023-03-13T03:38:52.986Z,98928.41
2023-03-13T03:41:24.651Z,98920.44
2023-03-13T03:43:54.523Z,98927.38
2023-03-13T03:46:25.176Z,98923.72
2023-03-13T03:48:52.396Z,98925.31
2023-03-13T03:51:19.368Z,98935.53
2023-03-13T03:53:47.967Z,98926.56
2023-03-13T03:56:15.052Z,98931.88
2023-03-13T03:58:47.652Z,98919.22
2023-03-13T04:01:35.207Z,98929.00
2023-03-13T04:04:04.178Z,98928.81
2023-03-13T04:06:31.387Z,98930.22
2023-03-13T04:08:59.108Z,98929.44
2023-03-13T04:11:28.917Z,98930.03
2023-03-13T04:13:57.864Z,98931.03
2023-03-13T04:16:25.578Z,98927.38
2023-03-13T04:18:54.484Z,98934.31
2023-03-13T04:21:22.063Z,98923.69
2023-03-13T04:24:09.792Z,98932.69
2023-03-13T04:26:39.252Z,98933.09
2023-03-13T04:29:06.794Z,98937.59
2023-03-13T04:31:47.254Z,98933.91
2023-03-13T04:34:20.366Z,98940.47
2023-03-13T04:37:17.140Z,98946.78
2023-03-13T04:40:03.181Z,98931.88
2023-03-13T04:42:42.005Z,98929.06
2023-03-13T04:45:18.633Z,98938.44
2023-03-13T04:48:16.420Z,98934.75
2023-03-13T04:50:59.990Z,98938.44
2023-03-13T04:53:31.621Z,98933.97
2023-03-13T04:56:43.156Z,98935.56
2023-03-13T04:59:22.813Z,98937.00
2023-03-13T05:02:13.392Z,98934.34
2023-03-13T05:04:58.602Z,98933.34
2023-03-13T05:07:46.077Z,98934.97
2023-03-13T05:10:34.988Z,98926.22
2023-03-13T05:13:22.498Z,98922.31
2023-03-13T05:15:55.909Z,98927.59
2023-03-13T05:18:41.970Z,98919.66
2023-03-13T05:21:28.268Z,98918.03
2023-03-13T05:24:15.631Z,98909.03
2023-03-13T05:27:02.911Z,98916.00
2023-03-13T05:29:50.509Z,98911.50
2023-03-13T05:32:37.080Z,98908.44
2023-03-13T05:35:23.670Z,98912.72
2023-03-13T05:38:09.376Z,98903.75
2023-03-13T05:40:58.825Z,98897.22
2023-03-13T05:43:51.854Z,98890.69
2023-03-13T05:46:32.453Z,98894.75
2023-03-13T05:49:15.757Z,98898.03
2023-03-13T05:52:01.549Z,98895.16
2023-03-13T05:54:47.118Z,98896.56
2023-03-13T05:57:33.340Z,98909.44
2023-03-13T06:00:26.624Z,98897.38
2023-03-13T06:03:07.381Z,98904.09
2023-03-13T06:05:39.154Z,98907.19
2023-03-13T06:08:15.434Z,98902.06
2023-03-13T06:10:42.448Z,98901.66
2023-03-13T06:13:19.509Z,98892.25
2023-03-13T06:15:57.843Z,98887.34
2023-03-13T06:18:43.713Z,98898.34
2023-03-13T06:21:10.962Z,98883.66
2023-03-13T06:23:38.187Z,98886.47
2023-03-13T06:26:05.640Z,98897.50
2023-03-13T06:28:32.950Z,98893.19
2023-03-13T06:31:05.858Z,98893.38
2023-03-13T06:33:34.287Z,98899.25
2023-03-13T06:36:02.815Z,98885.16
2023-03-13T06:38:30.472Z,98886.75
2023-03-13T06:40:57.988Z,98890.78
2023-03-13T06:43:25.438Z,98887.88
2023-03-13T06:45:52.406Z,98876.38
2023-03-13T06:48:21.534Z,98879.16
2023-03-13T06:50:49.478Z,98875.78
2023-03-13T06:53:19.777Z,98878.59
2023-03-13T06:55:47.407Z,98876.03
2023-03-13T06:58:29.220Z,98864.50
2023-03-13T07:01:05.679Z,98859.31
2023-03-13T07:03:33.979Z,98862.66
2023-03-13T07:06:04.524Z,98868.72
2023-03-13T07:08:33.030Z,98860.47
2023-03-13T07:11:04.412Z,98860.84
2023-03-13T07:13:32.197Z,98857.91
2023-03-13T07:16:05.496Z,98857.88
2023-03-13T07:18:34.391Z,98865.53
2023-03-13T07:21:07.376Z,98850.78
2023-03-13T07:23:35.818Z,98855.91
2023-03-13T07:26:07.457Z,98858.19
2023-03-13T07:28:37.632Z,98848.75
2023-03-13T07:31:08.849Z,98840.78
2023-03-13T07:33:36.297Z,98835.28
2023-03-13T07:36:03.739Z,98836.00
2023-03-13T07:38:31.054Z,98833.63
2023-03-13T07:41:05.171Z,98823.41
2023-03-13T07:43:32.817Z,98815.34
2023-03-13T07:46:03.857Z,98821.97
2023-03-13T07:48:43.020Z,98823.47
2023-03-13T07:51:25.289Z,98811.53
2023-03-13T07:53:57.638Z,98812.72
2023-03-13T07:56:25.083Z,98809.59
2023-03-13T07:58:52.465Z,98812.69
2023-03-13T08:01:30.475Z,98810.63
2023-03-13T08:04:01.130Z,98803.22
2023-03-13T08:06:33.886Z,98805.84
2023-03-13T08:09:02.136Z,98812.88
2023-03-13T08:11:29.425Z,98815.38
2023-03-13T08:13:58.392Z,98806.31
2023-03-13T08:16:33.974Z,98814.91
2023-03-13T08:19:06.477Z,98810.69
2023-03-13T08:21:36.981Z,98799.06
2023-03-13T08:24:07.943Z,98799.25
2023-03-13T08:26:38.397Z,98786.09
2023-03-13T08:29:11.884Z,98788.06
2023-03-13T08:31:44.047Z,98790.25
2023-03-13T08:34:12.994Z,98792.84
2023-03-13T08:36:40.831Z,98799.44
2023-03-13T08:39:17.179Z,98789.97
2023-03-13T08:41:44.587Z,98783.88
2023-03-13T08:44:15.661Z,98774.91
2023-03-13T08:46:44.012Z,98779.34
2023-03-13T08:49:13.208Z,98780.59
2023-03-13T08:51:40.801Z,98762.81
2023-03-13T08:54:08.246Z,98758.69
2023-03-13T08:56:35.387Z,98759.31
2023-03-13T08:59:05.393Z,98751.69
2023-03-13T09:01:35.954Z,98757.19
2023-03-13T09:04:04.877Z,98741.22
2023-03-13T09:06:38.000Z,98740.28
2023-03-13T09:09:06.964Z,98735.84
2023-03-13T09:11:34.498Z,98737.28
2023-03-13T09:14:01.762Z,98740.63
2023-03-13T09:16:32.345Z,98735.34
2023-03-13T09:19:00.403Z,98726.81
2023-03-13T09:21:34.979Z,98729.59
2023-03-13T09:24:02.863Z,98723.75
2023-03-13T09:26:30.601Z,98723.81
2023-03-13T09:28:58.306Z,98725.47
2023-03-13T09:31:33.932Z,98719.22
2023-03-13T09:34:01.901Z,98720.56
2023-03-13T09:36:29.289Z,98725.44
2023-03-13T09:38:59.485Z,98722.25
2023-03-13T09:41:43.135Z,98712.41
2023-03-13T09:44:23.195Z,98709.16
2023-03-13T09:46:53.775Z,98709.78
2023-03-13T09:49:37.960Z,98702.91
2023-03-13T09:52:18.088Z,98702.94
2023-03-13T09:55:17.688Z,98693.31
2023-03-13T09:58:10.902Z,98701.50
2023-03-13T10:00:41.793Z,98694.75
2023-03-13T10:03:17.336Z,98681.31
2023-03-13T10:05:51.848Z,98669.47
2023-03-13T10:08:26.596Z,98667.31
2023-03-13T10:11:37.996Z,98667.31
2023-03-13T10:14:31.248Z,98657.63
2023-03-13T10:17:37.824Z,98659.22
2023-03-13T10:20:25.530Z,98659.75
2023-03-13T10:23:20.208Z,98661.38
2023-03-13T10:25:47.849Z,98661.88
2023-03-13T10:28:20.189Z,98660.81
2023-03-13T10:30:54.505Z,98652.66
2023-03-13T10:33:42.461Z,98646.69
2023-03-13T10:36:13.603Z,98651.44
2023-03-13T10:38:51.798Z,98633.59
2023-03-13T10:41:38.411Z,98628.13
2023-03-13T10:44:33.220Z,98618.78
2023-03-13T10:47:03.226Z,98618.34
2023-03-13T10:49:32.348Z,98609.59
2023-03-13T10:52:04.629Z,98606.44
2023-03-13T10:54:36.442Z,98611.41
2023-03-13T10:57:18.932Z,98609.38
2023-03-13T10:59:54.144Z,98605.50
2023-03-13T11:02:35.476Z,98605.94
2023-03-13T11:05:24.283Z,98606.41
2023-03-13T11:07:53.510Z,98593.16
2023-03-13T11:10:29.921Z,98583.47
2023-03-13T11:12:58.776Z,98577.94
2023-03-13T11:15:45.059Z,98580.72
2023-03-13T11:18:26.022Z,98587.56
2023-03-13T11:20:54.309Z,98573.84
2023-03-13T11:26:39.928Z,98569.38
2023-03-13T11:29:47.589Z,98563.16
2023-03-13T11:32:31.298Z,98561.84
2023-03-13T11:35:17.493Z,98559.59
2023-03-13T11:37:44.851Z,98550.97
2023-03-13T11:40:36.807Z,98546.13
2023-03-13T11:43:24.009Z,98543.94
2023-03-13T11:46:36.113Z,98549.19
2023-03-13T11:49:44.351Z,98533.94
2023-03-13T11:52:53.179Z,98534.69
2023-03-13T11:55:34.813Z,98521.75
2023-03-13T11:58:10.784Z,98534.47
2023-03-13T12:00:50.710Z,98524.03
2023-03-13T12:03:55.840Z,98517.91
2023-03-13T12:07:04.875Z,98502.41
2023-03-13T12:09:46.078Z,98503.88
2023-03-13T12:12:33.560Z,98499.59
2023-03-13T12:15:19.515Z,98481.06
2023-03-13T12:17:52.198Z,98466.00
2023-03-13T12:20:44.836Z,98473.91
2023-03-13T12:23:11.692Z,98468.03
2023-03-13T12:26:02.537Z,98457.91
2023-03-13T12:29:14.394Z,98462.81
2023-03-13T12:32:07.099Z,98455.06
2023-03-13T12:34:57.079Z,98448.31
2023-03-13T12:37:45.224Z,98443.41
2023-03-13T12:40:44.694Z,98438.03
2023-03-13T12:43:23.450Z,98432.31
2023-03-13T12:45:59.798Z,98439.53
2023-03-13T12:49:02.793Z,98426.63
2023-03-13T12:52:07.341Z,98438.44
2023-03-13T12:55:26.949Z,98431.88
2023-03-13T12:58:16.636Z,98438.09
2023-03-13T13:00:48.541Z,98431.88
2023-03-13T13:03:31.897Z,98429.75
2023-03-13T13:06:13.148Z,98428.69
2023-03-13T13:08:46.127Z,98426.84
2023-03-13T13:11:55.132Z,98427.34
2023-03-13T13:14:22.027Z,98425.53
2023-03-13T13:17:28.912Z,98429.69
2023-03-13T13:19:56.844Z,98433.75
2023-03-13T13:22:39.261Z,98437.06
2023-03-13T13:25:29.187Z,98430.59
2023-03-13T13:28:11.977Z,98438.69
2023-03-13T13:30:39.268Z,98429.06
2023-03-13T13:33:19.117Z,98440.94
2023-03-13T13:36:07.485Z,98440.41
2023-03-13T13:38:40.069Z,98446.31
2023-03-13T13:41:09.827Z,98439.34
2023-03-13T13:43:49.475Z,98449.06
2023-03-13T13:46:29.859Z,98442.09
2023-03-13T13:49:13.634Z,98442.19
2023-03-13T13:51:42.540Z,98447.09
2023-03-13T13:54:18.647Z,98449.31
2023-03-13T13:56:49.823Z,98439.94
2023-03-13T13:59:30.620Z,98438.09
2023-03-13T14:02:03.770Z,98430.56
2023-03-13T14:05:07.250Z,98435.97
2023-03-13T14:07:39.952Z,98438.97
2023-03-13T14:10:39.469Z,98438.19
2023-03-13T14:13:22.354Z,98441.44
2023-03-13T14:15:54.081Z,98443.00
2023-03-13T14:18:24.450Z,98427.97
2023-03-13T14:21:14.033Z,98437.06
2023-03-13T14:23:46.567Z,98434.41
2023-03-13T14:26:19.573Z,98419.88
2023-03-13T14:29:04.459Z,98412.91
2023-03-13T14:31:36.545Z,98426.03
2023-03-13T14:34:07.934Z,98417.16
2023-03-13T14:36:51.768Z,98417.44
2023-03-13T14:39:33.838Z,98407.75
2023-03-13T14:42:13.166Z,98418.75
2023-03-13T14:44:43.851Z,98410.97
2023-03-13T14:47:30.635Z,98409.63
2023-03-13T14:50:10.046Z,98401.56
2023-03-13T14:52:39.834Z,98414.44
2023-03-13T14:55:23.797Z,98419.22
2023-03-13T14:58:05.108Z,98408.22
2023-03-13T15:00:42.867Z,98407.41
2023-03-13T15:03:16.868Z,98400.44
2023-03-13T15:05:50.488Z,98393.22
2023-03-13T15:08:22.115Z,98395.88
2023-03-13T15:10:50.443Z,98399.38
2023-03-13T15:13:24.802Z,98390.00
2023-03-13T15:15:53.031Z,98396.16
2023-03-13T15:18:30.133Z,98397.22
2023-03-13T15:21:37.596Z,98394.50
2023-03-13T15:24:15.823Z,98389.13
2023-03-13T15:26:42.833Z,98384.56
2023-03-13T15:29:11.574Z,98387.97
2023-03-13T15:31:40.258Z,98387.41
2023-03-13T15:34:13.191Z,98379.31
2023-03-13T15:36:41.658Z,98386.81
2023-03-13T15:39:20.336Z,98370.69
2023-03-13T15:41:47.339Z,98368.53
2023-03-13T15:44:14.903Z,98370.66
2023-03-13T15:46:41.996Z,98368.81
2023-03-13T15:49:12.947Z,98372.28
2023-03-13T15:51:40.025Z,98371.16
2023-03-13T15:54:07.308Z,98367.69
2023-03-13T15:56:37.839Z,98366.88
2023-03-13T15:59:13.753Z,98358.31
2023-03-13T16:01:41.511Z,98352.13
2023-03-13T16:04:10.363Z,98370.84
2023-03-13T16:06:37.720Z,98361.19
2023-03-13T16:09:07.550Z,98371.91
2023-03-13T16:11:34.830Z,98360.91
2023-03-13T16:14:02.705Z,98360.88
2023-03-13T16:16:37.547Z,98368.38
2023-03-13T16:19:07.193Z,98371.81
2023-03-13T16:21:35.044Z,98369.41
2023-03-13T16:24:02.405Z,98371.53
2023-03-13T16:26:32.083Z,98372.06
2023-03-13T16:28:59.497Z,98371.00
2023-03-13T16:31:33.116Z,98367.78
2023-03-13T16:34:00.956Z,98372.88
2023-03-13T16:36:31.597Z,98372.06
2023-03-13T16:39:08.962Z,98365.09
2023-03-13T16:41:39.153Z,98370.47
2023-03-13T16:44:06.340Z,98363.44
2023-03-13T16:46:40.358Z,98359.13
2023-03-13T16:49:15.007Z,98373.59
2023-03-13T16:51:42.320Z,98361.25
2023-03-13T16:54:12.006Z,98369.31
2023-03-13T16:56:43.186Z,98363.41
2023-03-13T16:59:18.205Z,98353.19
2023-03-13T17:01:47.020Z,98348.38
2023-03-13T17:04:14.330Z,98348.06
2023-03-13T17:06:44.479Z,98351.56
2023-03-13T17:09:17.803Z,98339.72
2023-03-13T17:11:45.381Z,98337.06
2023-03-13T17:14:15.544Z,98335.47
2023-03-13T17:16:45.306Z,98329.28
2023-03-13T17:19:16.896Z,98314.53
2023-03-13T17:21:44.158Z,98318.81
2023-03-13T17:24:11.581Z,98314.78
2023-03-13T17:26:40.459Z,98316.09
2023-03-13T17:29:14.351Z,98308.56
2023-03-13T17:31:41.627Z,98314.97
2023-03-13T17:34:09.753Z,98302.69
2023-03-13T17:36:37.249Z,98315.50
2023-03-13T17:39:08.692Z,98308.00
2023-03-13T17:41:36.248Z,98313.84
2023-03-13T17:44:04.015Z,98300.47
2023-03-13T17:46:46.803Z,98296.44
2023-03-13T17:50:00.441Z,98299.38
2023-03-13T17:52:27.667Z,98296.16
2023-03-13T17:54:54.903Z,98294.53
2023-03-13T17:57:22.869Z,98287.53
2023-03-13T17:59:50.086Z,98287.53
2023-03-13T18:02:19.155Z,98294.53
2023-03-13T18:04:48.062Z,98278.47
2023-03-13T18:07:26.392Z,98289.19
2023-03-13T18:09:54.478Z,98284.31
2023-03-13T18:12:21.484Z,98282.69
2023-03-13T18:14:49.017Z,98274.09
2023-03-13T18:17:21.141Z,98267.38
2023-03-13T18:19:49.968Z,98255.31
2023-03-13T18:22:24.626Z,98252.09
2023-03-13T18:24:52.085Z,98239.81
2023-03-13T18:27:22.239Z,98236.56
2023-03-13T18:29:49.693Z,98229.88
2023-03-13T18:32:19.026Z,98219.41
2023-03-13T18:34:46.559Z,98201.19
2023-03-13T18:37:26.158Z,98198.53
2023-03-13T18:39:55.710Z,98199.84
2023-03-13T18:42:24.652Z,98195.81
2023-03-13T18:44:53.762Z,98188.06
2023-03-13T18:47:23.611Z,98179.22
2023-03-13T18:49:51.125Z,98170.38
2023-03-13T18:52:18.218Z,98157.28
2023-03-13T18:54:45.761Z,98153.56
2023-03-13T18:57:16.644Z,98141.22
2023-03-13T18:59:45.297Z,98144.94
2023-03-13T19:02:18.121Z,98154.06
2023-03-13T19:04:57.709Z,98162.31
2023-03-13T19:07:27.274Z,98154.56
2023-03-13T19:09:54.633Z,98146.00
2023-03-13T19:12:21.854Z,98148.13
2023-03-13T19:14:49.005Z,98149.69
2023-03-13T19:17:29.514Z,98150.78
2023-03-13T19:19:59.602Z,98134.38
2023-03-13T19:22:26.886Z,98130.91
2023-03-13T19:24:54.184Z,98129.31
2023-03-13T19:27:21.106Z,98138.38
2023-03-13T19:29:48.343Z,98133.03
2023-03-13T19:32:18.387Z,98126.09
2023-03-13T19:34:45.745Z,98129.00
2023-03-13T19:37:16.327Z,98129.81
2023-03-13T19:39:43.867Z,98128.22
2023-03-13T19:42:11.516Z,98119.63
2023-03-13T19:44:40.305Z,98120.69
2023-03-13T19:47:07.744Z,98121.75
2023-03-13T19:49:35.053Z,98111.06
2023-03-13T19:52:02.259Z,98113.19
2023-03-13T19:54:29.543Z,98113.19
2023-03-13T19:56:57.444Z,98109.97
2023-03-13T19:59:31.865Z,98113.69
2023-03-13T20:02:01.147Z,98113.69
2023-03-13T20:04:28.554Z,98119.31
2023-03-13T20:06:55.528Z,98116.63
2023-03-13T20:09:23.209Z,98119.53
2023-03-13T20:11:50.206Z,98122.47
2023-03-13T20:14:17.477Z,98124.09
2023-03-13T20:16:47.328Z,98125.97
2023-03-13T20:19:15.596Z,98119.81
2023-03-13T20:21:42.969Z,98102.41
2023-03-13T20:24:10.819Z,98101.88
2023-03-13T20:26:38.019Z,98103.72
2023-03-13T20:29:05.267Z,98100.50
2023-03-13T20:31:32.917Z,98101.00
2023-03-13T20:34:00.393Z,98101.81
2023-03-13T20:36:30.334Z,98098.59
2023-03-13T20:38:57.570Z,98097.00
2023-03-13T20:41:30.848Z,98092.69
2023-03-13T20:43:58.087Z,98101.47
2023-03-13T20:46:25.290Z,98102.47
2023-03-13T20:48:52.775Z,98099.47
2023-03-13T20:51:19.788Z,98095.72
2023-03-13T20:53:46.945Z,98097.84
2023-03-13T20:56:13.978Z,98096.53
2023-03-13T20:58:41.377Z,98087.16
2023-03-13T21:01:08.796Z,98088.75
2023-03-13T21:03:36.745Z,98080.72
2023-03-13T21:06:16.792Z,98070.03
2023-03-13T21:08:46.607Z,98074.31
2023-03-13T21:11:21.253Z,98070.03
2023-03-13T21:13:49.579Z,98070.53
2023-03-13T21:16:18.403Z,98064.66
2023-03-13T21:18:47.123Z,98065.16
2023-03-13T21:21:18.691Z,98049.91
2023-03-13T21:23:47.133Z,98057.66
2023-03-13T21:26:14.858Z,98050.13
2023-03-13T21:28:42.412Z,98047.97
2023-03-13T21:31:16.116Z,98046.88
2023-03-13T21:33:45.665Z,98044.69
2023-03-13T21:36:15.892Z,98032.97
2023-03-13T21:38:43.959Z,98029.44
2023-03-13T21:41:15.135Z,98036.09
2023-03-13T21:43:43.555Z,98034.50
2023-03-13T21:46:16.516Z,98022.16
2023-03-13T21:51:17.689Z,98012.41
2023-03-13T21:53:44.905Z,98017.75
2023-03-13T21:56:16.600Z,98018.78
2023-03-13T21:58:47.881Z,98002.78
2023-03-13T22:01:16.241Z,97993.63
2023-03-13T22:03:43.738Z,97996.31
2023-03-13T22:06:20.003Z,97985.63
2023-03-13T22:08:49.704Z,97988.53
2023-03-13T22:11:17.605Z,97994.63
2023-03-13T22:13:44.980Z,97994.06
2023-03-13T22:16:12.228Z,98000.47
2023-03-13T22:18:41.821Z,97991.91
2023-03-13T22:21:08.949Z,97992.41
2023-03-13T22:23:36.116Z,97990.25
2023-03-13T22:26:03.372Z,97986.50
2023-03-13T22:28:30.882Z,97992.34
2023-03-13T22:31:01.755Z,98004.34
2023-03-13T22:33:29.201Z,98015.81
2023-03-13T22:35:56.257Z,98002.94
2023-03-13T22:38:24.653Z,97998.28
2023-03-13T22:41:03.950Z,97986.56
2023-03-13T22:43:31.222Z,97984.25
2023-03-13T22:45:59.457Z,97988.44
2023-03-13T22:48:27.411Z,97988.50
2023-03-13T22:51:03.607Z,97980.00
2023-03-13T22:53:33.538Z,97982.91
2023-03-13T22:56:00.675Z,97986.94
2023-03-13T22:58:28.310Z,97968.53
2023-03-13T23:00:56.597Z,97981.03
2023-03-13T23:03:23.895Z,97967.97
2023-03-13T23:05:50.879Z,97958.91
2023-03-13T23:08:19.030Z,97966.06
2023-03-13T23:10:47.606Z,97957.75
2023-03-13T23:13:15.570Z,97958.81
2023-03-13T23:15:58.220Z,97956.59
2023-03-13T23:18:27.713Z,97950.13
2023-03-13T23:20:55.257Z,97943.75
2023-03-13T23:23:22.610Z,97929.38
2023-03-13T23:25:49.836Z,97924.00
2023-03-13T23:28:17.176Z,97927.19
2023-03-13T23:30:44.080Z,97925.44
2023-03-13T23:33:11.331Z,97927.22
2023-03-13T23:35:38.314Z,97919.56
2023-03-13T23:38:05.600Z,97914.00
2023-03-13T23:40:32.730Z,97910.53
2023-03-13T23:43:00.174Z,97889.16
2023-03-13T23:45:27.299Z,97885.94
2023-03-13T23:47:55.192Z,97884.19
2023-03-13T23:50:23.904Z,97893.25
2023-03-13T23:52:51.138Z,97887.28
2023-03-13T23:55:18.193Z,97888.72
2023-03-13T23:57:50.423Z,97879.63
